createdAt,value
2023-02-06T00:03:45.080Z,10.90
2023-02-06T00:07:49.472Z,11.20
2023-02-06T00:11:52.533Z,13.80
2023-02-06T00:15:55.531Z,12.80
2023-02-06T00:19:58.520Z,12.33
2023-02-06T00:24:03.817Z,11.90
2023-02-06T00:28:06.709Z,10.60
2023-02-06T00:32:09.829Z,11.17
2023-02-06T00:36:12.667Z,10.80
2023-02-06T00:40:17.402Z,11.43
2023-02-06T00:44:21.676Z,10.83
2023-02-06T00:48:24.896Z,11.17
2023-02-06T00:52:27.754Z,10.20
2023-02-06T00:56:31.841Z,10.77
2023-02-06T01:00:34.842Z,10.17
2023-02-06T01:04:37.870Z,10.47
2023-02-06T01:08:40.623Z,11.30
2023-02-06T01:12:45.055Z,11.80
2023-02-06T01:16:47.722Z,11.60
2023-02-06T01:20:50.725Z,13.70
2023-02-06T01:24:53.462Z,22.70
2023-02-06T01:28:57.801Z,32.37
2023-02-06T01:33:00.753Z,27.73
2023-02-06T01:37:03.666Z,51.57
2023-02-06T01:41:07.674Z,33.10
2023-02-06T01:45:43.749Z,20.90
2023-02-06T01:49:50.163Z,18.40
2023-02-06T01:53:55.472Z,18.37
2023-02-06T01:57:58.562Z,39.87
2023-02-06T02:02:01.351Z,38.57
2023-02-06T02:06:08.767Z,32.17
2023-02-06T02:10:11.600Z,29.67
2023-02-06T02:14:16.790Z,42.87
2023-02-06T02:18:39.269Z,36.13
2023-02-06T02:22:58.717Z,19.17
2023-02-06T02:27:34.972Z,16.20
2023-02-06T02:32:02.963Z,20.47
2023-02-06T02:36:10.043Z,26.97
2023-02-06T02:40:19.527Z,21.53
2023-02-06T02:44:27.515Z,21.13
2023-02-06T02:48:32.149Z,15.10
2023-02-06T02:52:36.171Z,36.90
2023-02-06T02:56:39.767Z,33.20
2023-02-06T03:00:45.685Z,18.13
2023-02-06T03:04:50.982Z,14.20
2023-02-06T03:09:00.050Z,13.90
2023-02-06T03:13:06.704Z,13.03
2023-02-06T03:17:12.285Z,15.03
2023-02-06T03:21:17.583Z,16.03
2023-02-06T03:25:26.735Z,16.70
2023-02-06T03:29:32.823Z,20.07
2023-02-06T03:33:38.490Z,18.00
2023-02-06T03:37:41.438Z,29.83
2023-02-06T03:41:46.630Z,17.53
2023-02-06T03:45:50.964Z,19.83
2023-02-06T03:49:54.407Z,18.67
2023-02-06T03:53:57.698Z,25.23
2023-02-06T03:58:04.978Z,20.80
2023-02-06T04:02:07.914Z,27.57
2023-02-06T04:06:10.905Z,41.53
2023-02-06T04:10:13.738Z,15.10
2023-02-06T04:14:17.852Z,14.37
2023-02-06T04:18:20.826Z,15.17
2023-02-06T04:22:23.523Z,21.70
2023-02-06T04:26:26.550Z,14.43
2023-02-06T04:30:30.771Z,14.33
2023-02-06T04:34:34.171Z,15.30
2023-02-06T04:38:37.140Z,15.50
2023-02-06T04:42:39.852Z,14.53
2023-02-06T04:46:44.264Z,14.63
2023-02-06T04:50:47.220Z,14.47
2023-02-06T04:54:49.993Z,13.90
2023-02-06T04:58:52.893Z,13.83
2023-02-06T05:02:57.059Z,14.63
2023-02-06T05:07:00.099Z,14.60
2023-02-06T05:11:03.097Z,15.03
2023-02-06T05:15:06.154Z,15.03
2023-02-06T05:19:10.835Z,16.30
2023-02-06T05:23:13.539Z,13.63
2023-02-06T05:27:16.285Z,12.93
2023-02-06T05:31:20.062Z,12.80
2023-02-06T05:35:25.315Z,15.93
2023-02-06T05:39:28.274Z,15.23
2023-02-06T05:43:31.112Z,14.30
2023-02-06T05:47:33.965Z,13.17
2023-02-06T05:51:38.048Z,13.77
2023-02-06T05:55:40.779Z,13.80
2023-02-06T05:59:43.825Z,13.47
2023-02-06T06:03:46.681Z,13.60
2023-02-06T06:07:51.040Z,13.87
2023-02-06T06:11:53.975Z,15.17
2023-02-06T06:15:57.037Z,16.17
2023-02-06T06:19:59.823Z,18.90
2023-02-06T06:24:04.033Z,18.40
2023-02-06T06:28:07.004Z,19.30
2023-02-06T06:32:10.258Z,20.47
2023-02-06T06:36:14.574Z,17.00
2023-02-06T06:40:19.284Z,15.37
2023-02-06T06:44:22.459Z,17.97
2023-02-06T06:48:25.425Z,15.80
2023-02-06T06:52:28.606Z,15.67
2023-02-06T06:56:32.689Z,15.90
2023-02-06T07:00:35.438Z,15.63
2023-02-06T07:04:38.461Z,14.00
2023-02-06T07:08:42.072Z,13.67
2023-02-06T07:12:46.429Z,14.97
2023-02-06T07:16:49.221Z,15.80
2023-02-06T07:20:52.484Z,13.77
2023-02-06T07:24:55.264Z,14.33
2023-02-06T07:28:59.724Z,15.90
2023-02-06T07:33:02.710Z,13.93
2023-02-06T07:37:05.723Z,15.20
2023-02-06T07:41:08.615Z,16.37
2023-02-06T07:45:12.750Z,16.30
2023-02-06T07:49:15.903Z,15.37
2023-02-06T07:53:18.650Z,15.70
2023-02-06T07:57:21.464Z,15.03
2023-02-06T08:01:26.090Z,16.57
2023-02-06T08:05:29.246Z,15.67
2023-02-06T08:09:32.386Z,16.67
2023-02-06T08:13:36.000Z,17.27
2023-02-06T08:17:42.674Z,17.70
2023-02-06T08:21:45.778Z,17.83
2023-02-06T08:25:48.517Z,19.73
2023-02-06T08:29:51.783Z,18.27
2023-02-06T08:33:56.519Z,16.63
2023-02-06T08:38:00.921Z,15.60
2023-02-06T08:42:06.090Z,14.60
2023-02-06T08:46:08.926Z,16.10
2023-02-06T08:50:13.145Z,15.93
2023-02-06T08:54:17.968Z,16.13
2023-02-06T08:58:20.701Z,15.23
2023-02-06T09:02:23.512Z,15.20
2023-02-06T09:06:28.040Z,15.00
2023-02-06T09:10:30.763Z,14.83
2023-02-06T09:14:35.394Z,16.90
2023-02-06T09:18:38.312Z,15.83
2023-02-06T09:22:44.521Z,15.20
2023-02-06T09:26:59.531Z,16.60
2023-02-06T09:31:03.004Z,13.90
2023-02-06T09:35:06.497Z,14.20
2023-02-06T09:39:11.386Z,14.87
2023-02-06T09:43:14.948Z,14.07
2023-02-06T09:47:22.934Z,13.50
2023-02-06T09:51:33.454Z,12.90
2023-02-06T09:55:41.367Z,13.93
2023-02-06T09:59:47.271Z,12.63
2023-02-06T10:04:05.157Z,12.67
2023-02-06T10:08:15.721Z,16.27
2023-02-06T10:12:24.795Z,15.97
2023-02-06T10:16:36.381Z,11.97
2023-02-06T10:20:42.106Z,12.53
2023-02-06T10:24:48.372Z,12.70
2023-02-06T10:28:55.910Z,13.43
2023-02-06T10:33:02.956Z,13.53
2023-02-06T10:37:25.713Z,12.20
2023-02-06T10:41:35.408Z,19.50
2023-02-06T10:45:44.970Z,13.40
2023-02-06T10:49:49.730Z,13.17
2023-02-06T10:53:55.848Z,13.00
2023-02-06T10:58:13.401Z,11.87
2023-02-06T11:02:23.527Z,12.10
2023-02-06T11:06:28.351Z,13.03
2023-02-06T11:10:32.263Z,12.90
2023-02-06T11:14:38.114Z,11.00
2023-02-06T11:18:45.391Z,13.33
2023-02-06T11:22:53.125Z,30.03
2023-02-06T11:26:58.531Z,9.90
2023-02-06T11:31:03.374Z,7.73
2023-02-06T11:35:17.183Z,7.80
2023-02-06T11:39:27.568Z,8.23
2023-02-06T11:43:33.901Z,10.20
2023-02-06T11:47:38.298Z,9.40
2023-02-06T11:51:51.554Z,10.77
2023-02-06T11:56:03.367Z,10.07
2023-02-06T12:00:21.081Z,9.63
2023-02-06T12:04:25.930Z,9.50
2023-02-06T12:08:37.556Z,10.40
2023-02-06T12:12:43.235Z,10.17
2023-02-06T12:16:46.646Z,12.03
2023-02-06T12:20:53.193Z,12.27
2023-02-06T12:25:00.185Z,9.90
2023-02-06T12:29:06.110Z,10.83
2023-02-06T12:33:14.276Z,12.70
2023-02-06T12:37:21.499Z,10.67
2023-02-06T12:41:36.309Z,9.93
2023-02-06T12:45:44.850Z,8.87
2023-02-06T12:49:53.760Z,8.40
2023-02-06T12:53:59.437Z,8.07
2023-02-06T12:58:04.626Z,8.83
2023-02-06T13:02:18.357Z,8.10
2023-02-06T13:06:22.678Z,9.23
2023-02-06T13:10:27.192Z,8.97
2023-02-06T13:14:31.450Z,8.93
2023-02-06T13:18:54.670Z,8.03
2023-02-06T13:23:23.863Z,7.67
2023-02-06T13:27:28.561Z,8.10
2023-02-06T13:31:35.333Z,7.93
2023-02-06T13:35:55.949Z,8.03
2023-02-06T13:40:20.744Z,8.20
2023-02-06T13:44:27.633Z,7.33
2023-02-06T13:49:05.364Z,8.50
2023-02-06T13:53:40.872Z,8.80
2023-02-06T13:57:54.835Z,8.30
2023-02-06T14:01:57.813Z,9.30
2023-02-06T14:06:09.358Z,12.40
2023-02-06T14:10:30.399Z,9.67
2023-02-06T14:14:45.014Z,9.43
2023-02-06T14:18:52.362Z,8.63
2023-02-06T14:23:05.769Z,11.70
2023-02-06T14:27:21.275Z,8.17
2023-02-06T14:31:36.289Z,10.40
2023-02-06T14:35:47.978Z,8.97
2023-02-06T14:39:53.202Z,9.83
2023-02-06T14:43:56.010Z,9.40
2023-02-06T14:48:01.565Z,8.77
2023-02-06T14:52:06.527Z,8.83
2023-02-06T14:56:16.571Z,8.60
2023-02-06T15:00:21.369Z,10.07
2023-02-06T15:04:26.015Z,9.17
2023-02-06T15:08:28.838Z,9.30
2023-02-06T15:12:33.825Z,10.80
2023-02-06T15:16:46.740Z,10.17
2023-02-06T15:20:54.484Z,12.07
2023-02-06T15:25:16.150Z,8.33
2023-02-06T15:29:23.365Z,8.00
2023-02-06T15:33:28.092Z,9.70
2023-02-06T15:37:32.845Z,8.57
2023-02-06T15:41:36.360Z,8.77
2023-02-06T15:45:41.843Z,8.90
2023-02-06T15:49:47.026Z,8.03
2023-02-06T15:53:51.038Z,7.50
2023-02-06T15:57:54.362Z,7.57
2023-02-06T16:01:59.500Z,9.60
2023-02-06T16:06:02.340Z,8.23
2023-02-06T16:10:18.982Z,10.70
2023-02-06T16:14:25.463Z,14.63
2023-02-06T16:18:32.315Z,17.53
2023-02-06T16:22:37.772Z,8.67
2023-02-06T16:26:47.061Z,8.77
2023-02-06T16:30:55.546Z,7.60
2023-02-06T16:35:01.373Z,8.73
2023-02-06T16:39:04.899Z,7.30
2023-02-06T16:43:10.112Z,8.73
2023-02-06T16:47:15.677Z,8.90
2023-02-06T16:51:21.808Z,7.33
2023-02-06T16:55:27.205Z,6.60
2023-02-06T16:59:29.982Z,6.60
2023-02-06T17:03:33.108Z,7.03
2023-02-06T17:07:37.842Z,7.63
2023-02-06T17:11:40.603Z,8.67
2023-02-06T17:15:43.774Z,6.40
2023-02-06T17:19:47.235Z,8.67
2023-02-06T17:23:52.545Z,8.17
2023-02-06T17:27:56.541Z,9.33
2023-02-06T17:32:00.028Z,10.00
2023-02-06T17:36:03.352Z,10.27
2023-02-06T17:40:08.817Z,14.13
2023-02-06T17:44:12.495Z,11.27
2023-02-06T17:48:15.932Z,7.67
2023-02-06T17:52:19.260Z,9.67
2023-02-06T17:56:23.664Z,7.03
2023-02-06T18:00:26.921Z,8.27
2023-02-06T18:04:30.042Z,6.57
2023-02-06T18:08:33.126Z,6.63
2023-02-06T18:12:39.726Z,5.40
2023-02-06T18:16:42.915Z,6.07
2023-02-06T18:20:45.849Z,5.20
2023-02-06T18:24:49.608Z,4.60
2023-02-06T18:28:53.872Z,4.67
2023-02-06T18:32:56.953Z,5.03
2023-02-06T18:36:59.714Z,6.30
2023-02-06T18:41:04.111Z,6.40
2023-02-06T18:45:09.447Z,6.40
2023-02-06T18:49:12.393Z,3.20
2023-02-06T18:53:15.926Z,4.03
2023-02-06T18:57:18.734Z,3.87
2023-02-06T19:01:24.283Z,4.27
2023-02-06T19:05:29.013Z,11.40
2023-02-06T19:09:31.871Z,8.60
2023-02-06T19:13:35.227Z,4.43
2023-02-06T19:17:39.526Z,7.93
2023-02-06T19:21:44.117Z,8.23
2023-02-06T19:25:46.994Z,5.50
2023-02-06T19:29:50.129Z,17.70
2023-02-06T19:33:55.988Z,17.87
2023-02-06T19:38:00.502Z,5.47
2023-02-06T19:42:06.391Z,8.23
2023-02-06T19:46:12.185Z,6.50
2023-02-06T19:50:23.788Z,6.50
2023-02-06T19:54:27.082Z,7.00
2023-02-06T19:58:31.437Z,7.40
2023-02-06T20:02:34.256Z,5.40
2023-02-06T20:06:38.528Z,6.47
2023-02-06T20:10:41.428Z,7.07
2023-02-06T20:14:44.215Z,5.50
2023-02-06T20:18:47.077Z,5.50
2023-02-06T20:22:52.001Z,6.57
2023-02-06T20:26:57.367Z,8.00
2023-02-06T20:31:01.583Z,7.33
2023-02-06T20:35:04.417Z,7.13
2023-02-06T20:39:09.108Z,7.33
2023-02-06T20:43:12.158Z,6.57
2023-02-06T20:47:14.933Z,6.80
2023-02-06T20:51:17.689Z,8.87
2023-02-06T20:55:21.813Z,8.80
2023-02-06T20:59:24.597Z,9.73
2023-02-06T21:03:27.921Z,8.67
2023-02-06T21:07:30.997Z,9.77
2023-02-06T21:11:36.957Z,10.00
2023-02-06T21:15:39.704Z,7.53
2023-02-06T21:19:42.699Z,5.30
2023-02-06T21:23:45.662Z,5.93
2023-02-06T21:27:49.880Z,5.67
2023-02-06T21:32:07.242Z,5.20
2023-02-06T21:36:15.325Z,6.97
2023-02-06T21:40:18.319Z,6.17
2023-02-06T21:44:24.118Z,9.43
2023-02-06T21:48:27.419Z,11.27
2023-02-06T21:52:30.510Z,34.00
2023-02-06T21:56:33.333Z,8.97
2023-02-06T22:00:37.708Z,10.57
2023-02-06T22:04:40.520Z,7.57
2023-02-06T22:08:45.188Z,8.47
2023-02-06T22:12:49.591Z,9.13
2023-02-06T22:16:54.123Z,7.33
2023-02-06T22:21:04.429Z,10.53
2023-02-06T22:25:08.055Z,9.23
2023-02-06T22:29:13.337Z,11.50
2023-02-06T22:33:17.426Z,12.27
2023-02-06T22:37:20.138Z,10.60
2023-02-06T22:41:23.132Z,10.63
2023-02-06T22:45:25.888Z,9.43
2023-02-06T22:49:30.391Z,10.70
2023-02-06T22:53:33.462Z,9.33
2023-02-06T22:57:37.234Z,12.50
2023-02-06T23:01:42.000Z,10.30
2023-02-06T23:05:46.408Z,9.07
2023-02-06T23:09:49.271Z,10.70
2023-02-06T23:13:53.746Z,9.97
2023-02-06T23:17:56.463Z,12.43
2023-02-06T23:22:00.573Z,10.60
2023-02-06T23:26:03.335Z,13.00
2023-02-06T23:30:06.620Z,12.53
2023-02-06T23:34:09.640Z,11.27
2023-02-06T23:38:13.858Z,11.90
2023-02-06T23:42:16.711Z,11.83
2023-02-06T23:46:20.386Z,13.73
2023-02-06T23:50:23.497Z,13.50
2023-02-06T23:54:27.597Z,12.90
2023-02-06T23:58:30.321Z,13.03
